ミラノ/マルペンサ の空港の天気 - METARとTAF

ミラノ・マルペンサ国際空港 ( LIMC / MXP ) - イタリア ミラノ
飛行場実況気象(Metar)
観測時間01/20 18:50 CET (01/20 17:50 UTC)
風向・風速不定 1m/s
視程10km以上
天気現象
なし
気温0℃
湿度64%
気圧1031hPa
METARLIMC 201750Z VRB02KT CAVOK 00/M06 Q1031 NOSIG
過去の天気等 Google飛行場航空写真 Wunderground天気予報

過去48時間のMETAR

飛行場予報(TAF)
発表時間: 1/20 18:00 CET (1/20 17:00 UTC)
予報対象時間: 20日19時 CET ~ 22日1時 CET
風向・風速北 3m/s
視程10km以上
なし
TAF LIMC 201700Z 2018/2124 35005KT CAVOK